sensor_id;sensor_type;location;lat;lon;timestamp;P1;P2;P0
77365;PMS5003;66430;50.182;11.704;2023-05-19T00:01:39;11;11;
77365;PMS5003;66430;50.182;11.704;2023-05-19T00:04:04;12;10;
77365;PMS5003;66430;50.182;11.704;2023-05-19T00:06:30;14;13;
77365;PMS5003;66430;50.182;11.704;2023-05-19T00:08:56;13;12;
77365;PMS5003;66430;50.182;11.704;2023-05-19T00:11:21;11;11;
77365;PMS5003;66430;50.182;11.704;2023-05-19T00:13:46;12;11;
77365;PMS5003;66430;50.182;11.704;2023-05-19T00:16:12;12;11;
77365;PMS5003;66430;50.182;11.704;2023-05-19T00:18:36;14;12;
77365;PMS5003;66430;50.182;11.704;2023-05-19T00:21:02;11;10;
77365;PMS5003;66430;50.182;11.704;2023-05-19T00:23:27;9;9;
77365;PMS5003;66430;50.182;11.704;2023-05-19T00:25:53;11;11;
77365;PMS5003;66430;50.182;11.704;2023-05-19T00:28:18;11;10;
77365;PMS5003;66430;50.182;11.704;2023-05-19T00:30:44;10;10;
77365;PMS5003;66430;50.182;11.704;2023-05-19T00:33:10;11;11;
77365;PMS5003;66430;50.182;11.704;2023-05-19T00:35:35;10;10;
77365;PMS5003;66430;50.182;11.704;2023-05-19T00:38:00;16;12;
77365;PMS5003;66430;50.182;11.704;2023-05-19T00:40:26;12;11;
77365;PMS5003;66430;50.182;11.704;2023-05-19T00:42:52;13;11;
77365;PMS5003;66430;50.182;11.704;2023-05-19T00:45:18;10;9;
77365;PMS5003;66430;50.182;11.704;2023-05-19T00:47:43;9;9;
77365;PMS5003;66430;50.182;11.704;2023-05-19T00:50:09;12;11;
77365;PMS5003;66430;50.182;11.704;2023-05-19T00:52:34;10;10;
77365;PMS5003;66430;50.182;11.704;2023-05-19T00:55:00;11;11;
77365;PMS5003;66430;50.182;11.704;2023-05-19T00:57:25;10;10;
77365;PMS5003;66430;50.182;11.704;2023-05-19T00:59:50;10;8;
77365;PMS5003;66430;50.182;11.704;2023-05-19T01:02:16;12;12;
77365;PMS5003;66430;50.182;11.704;2023-05-19T01:04:41;9;9;
77365;PMS5003;66430;50.182;11.704;2023-05-19T01:07:07;11;11;
77365;PMS5003;66430;50.182;11.704;2023-05-19T01:09:32;8;8;
77365;PMS5003;66430;50.182;11.704;2023-05-19T01:11:58;9;9;
77365;PMS5003;66430;50.182;11.704;2023-05-19T01:14:23;16;12;
77365;PMS5003;66430;50.182;11.704;2023-05-19T01:16:50;9;9;
77365;PMS5003;66430;50.182;11.704;2023-05-19T01:19:19;10;10;
77365;PMS5003;66430;50.182;11.704;2023-05-19T01:26:37;12;9;
77365;PMS5003;66430;50.182;11.704;2023-05-19T01:29:02;11;11;
77365;PMS5003;66430;50.182;11.704;2023-05-19T01:31:22;12;11;
77365;PMS5003;66430;50.182;11.704;2023-05-19T01:33:48;12;10;
77365;PMS5003;66430;50.182;11.704;2023-05-19T01:36:13;12;12;
77365;PMS5003;66430;50.182;11.704;2023-05-19T01:38:39;12;12;
77365;PMS5003;66430;50.182;11.704;2023-05-19T01:41:04;13;12;
77365;PMS5003;66430;50.182;11.704;2023-05-19T01:43:29;16;12;
77365;PMS5003;66430;50.182;11.704;2023-05-19T01:45:55;13;10;
77365;PMS5003;66430;50.182;11.704;2023-05-19T01:48:20;12;10;
77365;PMS5003;66430;50.182;11.704;2023-05-19T01:50:46;13;12;
77365;PMS5003;66430;50.182;11.704;2023-05-19T01:53:11;13;12;
77365;PMS5003;66430;50.182;11.704;2023-05-19T01:55:41;17;12;
77365;PMS5003;66430;50.182;11.704;2023-05-19T01:58:06;12;12;
77365;PMS5003;66430;50.182;11.704;2023-05-19T02:00:30;15;12;
77365;PMS5003;66430;50.182;11.704;2023-05-19T02:02:55;14;14;
77365;PMS5003;66430;50.182;11.704;2023-05-19T02:05:21;13;13;
77365;PMS5003;66430;50.182;11.704;2023-05-19T02:07:47;12;12;
77365;PMS5003;66430;50.182;11.704;2023-05-19T02:10:13;15;13;
77365;PMS5003;66430;50.182;11.704;2023-05-19T02:12:36;18;14;
77365;PMS5003;66430;50.182;11.704;2023-05-19T02:15:03;11;11;
77365;PMS5003;66430;50.182;11.704;2023-05-19T02:17:27;15;12;
77365;PMS5003;66430;50.182;11.704;2023-05-19T02:19:52;12;12;
77365;PMS5003;66430;50.182;11.704;2023-05-19T02:22:18;12;12;
77365;PMS5003;66430;50.182;11.704;2023-05-19T02:24:43;14;13;
77365;PMS5003;66430;50.182;11.704;2023-05-19T02:27:09;17;14;
77365;PMS5003;66430;50.182;11.704;2023-05-19T02:29:34;15;13;
77365;PMS5003;66430;50.182;11.704;2023-05-19T02:31:59;13;13;
77365;PMS5003;66430;50.182;11.704;2023-05-19T02:34:25;13;12;
77365;PMS5003;66430;50.182;11.704;2023-05-19T02:36:51;15;12;
77365;PMS5003;66430;50.182;11.704;2023-05-19T02:39:16;16;14;
77365;PMS5003;66430;50.182;11.704;2023-05-19T02:41:42;12;11;
77365;PMS5003;66430;50.182;11.704;2023-05-19T02:44:07;16;14;
77365;PMS5003;66430;50.182;11.704;2023-05-19T02:46:33;15;15;
77365;PMS5003;66430;50.182;11.704;2023-05-19T02:48:58;17;14;
77365;PMS5003;66430;50.182;11.704;2023-05-19T02:51:23;13;13;
77365;PMS5003;66430;50.182;11.704;2023-05-19T02:53:49;11;11;
77365;PMS5003;66430;50.182;11.704;2023-05-19T02:56:14;12;12;
77365;PMS5003;66430;50.182;11.704;2023-05-19T02:58:40;16;13;
77365;PMS5003;66430;50.182;11.704;2023-05-19T03:01:05;15;15;
77365;PMS5003;66430;50.182;11.704;2023-05-19T03:03:31;16;11;
77365;PMS5003;66430;50.182;11.704;2023-05-19T03:05:57;18;18;
77365;PMS5003;66430;50.182;11.704;2023-05-19T03:08:22;15;14;
77365;PMS5003;66430;50.182;11.704;2023-05-19T03:10:48;13;12;
77365;PMS5003;66430;50.182;11.704;2023-05-19T03:13:13;14;13;
77365;PMS5003;66430;50.182;11.704;2023-05-19T03:15:39;12;10;
77365;PMS5003;66430;50.182;11.704;2023-05-19T03:18:04;12;12;
77365;PMS5003;66430;50.182;11.704;2023-05-19T03:20:30;11;11;
77365;PMS5003;66430;50.182;11.704;2023-05-19T03:22:56;18;14;
77365;PMS5003;66430;50.182;11.704;2023-05-19T03:25:21;13;12;
77365;PMS5003;66430;50.182;11.704;2023-05-19T03:27:46;10;10;
77365;PMS5003;66430;50.182;11.704;2023-05-19T03:30:12;11;9;
77365;PMS5003;66430;50.182;11.704;2023-05-19T03:32:37;14;14;
77365;PMS5003;66430;50.182;11.704;2023-05-19T03:35:03;16;12;
77365;PMS5003;66430;50.182;11.704;2023-05-19T03:37:28;16;15;
77365;PMS5003;66430;50.182;11.704;2023-05-19T03:39:53;13;12;
77365;PMS5003;66430;50.182;11.704;2023-05-19T03:42:19;10;10;
77365;PMS5003;66430;50.182;11.704;2023-05-19T03:44:44;15;14;
77365;PMS5003;66430;50.182;11.704;2023-05-19T03:47:10;17;14;
77365;PMS5003;66430;50.182;11.704;2023-05-19T03:49:35;16;14;
77365;PMS5003;66430;50.182;11.704;2023-05-19T03:52:00;16;16;
77365;PMS5003;66430;50.182;11.704;2023-05-19T03:54:26;17;16;
77365;PMS5003;66430;50.182;11.704;2023-05-19T03:56:52;18;14;
77365;PMS5003;66430;50.182;11.704;2023-05-19T03:59:17;13;13;
77365;PMS5003;66430;50.182;11.704;2023-05-19T04:01:42;15;13;
77365;PMS5003;66430;50.182;11.704;2023-05-19T04:04:07;14;13;
77365;PMS5003;66430;50.182;11.704;2023-05-19T04:06:33;13;12;
77365;PMS5003;66430;50.182;11.704;2023-05-19T04:09:00;14;13;
77365;PMS5003;66430;50.182;11.704;2023-05-19T04:11:24;11;11;
77365;PMS5003;66430;50.182;11.704;2023-05-19T04:13:49;14;12;
77365;PMS5003;66430;50.182;11.704;2023-05-19T04:16:15;18;18;
77365;PMS5003;66430;50.182;11.704;2023-05-19T04:18:40;16;15;
77365;PMS5003;66430;50.182;11.704;2023-05-19T04:21:05;19;15;
77365;PMS5003;66430;50.182;11.704;2023-05-19T04:23:31;17;15;
77365;PMS5003;66430;50.182;11.704;2023-05-19T04:25:56;14;12;
77365;PMS5003;66430;50.182;11.704;2023-05-19T04:28:22;14;13;
77365;PMS5003;66430;50.182;11.704;2023-05-19T04:30:47;11;11;
77365;PMS5003;66430;50.182;11.704;2023-05-19T04:33:12;12;12;
77365;PMS5003;66430;50.182;11.704;2023-05-19T04:35:38;15;15;
77365;PMS5003;66430;50.182;11.704;2023-05-19T04:38:04;18;17;
77365;PMS5003;66430;50.182;11.704;2023-05-19T04:40:29;16;16;
77365;PMS5003;66430;50.182;11.704;2023-05-19T04:42:55;12;12;
77365;PMS5003;66430;50.182;11.704;2023-05-19T04:45:20;12;12;
77365;PMS5003;66430;50.182;11.704;2023-05-19T04:47:45;14;12;
77365;PMS5003;66430;50.182;11.704;2023-05-19T04:50:11;14;14;
77365;PMS5003;66430;50.182;11.704;2023-05-19T04:52:36;11;11;
77365;PMS5003;66430;50.182;11.704;2023-05-19T04:55:01;14;14;
77365;PMS5003;66430;50.182;11.704;2023-05-19T04:57:26;15;13;
77365;PMS5003;66430;50.182;11.704;2023-05-19T04:59:52;14;14;
77365;PMS5003;66430;50.182;11.704;2023-05-19T05:02:18;18;18;
77365;PMS5003;66430;50.182;11.704;2023-05-19T05:04:43;14;14;
77365;PMS5003;66430;50.182;11.704;2023-05-19T05:07:09;19;16;
77365;PMS5003;66430;50.182;11.704;2023-05-19T05:09:35;13;11;
77365;PMS5003;66430;50.182;11.704;2023-05-19T05:12:00;12;12;
77365;PMS5003;66430;50.182;11.704;2023-05-19T05:14:26;14;13;
77365;PMS5003;66430;50.182;11.704;2023-05-19T05:16:52;16;14;
77365;PMS5003;66430;50.182;11.704;2023-05-19T05:19:17;13;13;
77365;PMS5003;66430;50.182;11.704;2023-05-19T05:21:43;15;13;
77365;PMS5003;66430;50.182;11.704;2023-05-19T05:24:08;16;13;
77365;PMS5003;66430;50.182;11.704;2023-05-19T05:26:33;13;13;
77365;PMS5003;66430;50.182;11.704;2023-05-19T05:28:58;15;13;
77365;PMS5003;66430;50.182;11.704;2023-05-19T05:31:24;14;13;
77365;PMS5003;66430;50.182;11.704;2023-05-19T05:33:49;16;15;
77365;PMS5003;66430;50.182;11.704;2023-05-19T05:36:15;11;11;
77365;PMS5003;66430;50.182;11.704;2023-05-19T05:38:40;13;11;
77365;PMS5003;66430;50.182;11.704;2023-05-19T05:41:06;14;14;
77365;PMS5003;66430;50.182;11.704;2023-05-19T05:43:31;13;13;
77365;PMS5003;66430;50.182;11.704;2023-05-19T05:45:57;11;10;
77365;PMS5003;66430;50.182;11.704;2023-05-19T05:48:22;12;12;
77365;PMS5003;66430;50.182;11.704;2023-05-19T05:50:48;10;10;
77365;PMS5003;66430;50.182;11.704;2023-05-19T05:53:14;12;10;
77365;PMS5003;66430;50.182;11.704;2023-05-19T05:55:39;12;10;
77365;PMS5003;66430;50.182;11.704;2023-05-19T05:58:04;13;12;
77365;PMS5003;66430;50.182;11.704;2023-05-19T06:00:29;14;12;
77365;PMS5003;66430;50.182;11.704;2023-05-19T06:02:55;12;11;
77365;PMS5003;66430;50.182;11.704;2023-05-19T06:05:20;17;13;
77365;PMS5003;66430;50.182;11.704;2023-05-19T06:07:46;12;12;
77365;PMS5003;66430;50.182;11.704;2023-05-19T06:10:11;11;10;
77365;PMS5003;66430;50.182;11.704;2023-05-19T06:12:37;9;9;
77365;PMS5003;66430;50.182;11.704;2023-05-19T06:15:02;13;13;
77365;PMS5003;66430;50.182;11.704;2023-05-19T06:17:28;11;11;
77365;PMS5003;66430;50.182;11.704;2023-05-19T06:19:53;13;13;
77365;PMS5003;66430;50.182;11.704;2023-05-19T06:22:19;15;12;
77365;PMS5003;66430;50.182;11.704;2023-05-19T06:24:44;14;13;
77365;PMS5003;66430;50.182;11.704;2023-05-19T06:27:10;11;10;
77365;PMS5003;66430;50.182;11.704;2023-05-19T06:29:35;10;10;
77365;PMS5003;66430;50.182;11.704;2023-05-19T06:32:00;12;10;
77365;PMS5003;66430;50.182;11.704;2023-05-19T06:34:26;12;11;
77365;PMS5003;66430;50.182;11.704;2023-05-19T06:36:51;10;10;
77365;PMS5003;66430;50.182;11.704;2023-05-19T06:39:17;9;8;
77365;PMS5003;66430;50.182;11.704;2023-05-19T06:41:42;14;11;
77365;PMS5003;66430;50.182;11.704;2023-05-19T06:44:08;12;12;
77365;PMS5003;66430;50.182;11.704;2023-05-19T06:46:33;10;10;
77365;PMS5003;66430;50.182;11.704;2023-05-19T06:48:59;15;13;
77365;PMS5003;66430;50.182;11.704;2023-05-19T06:51:24;9;9;
77365;PMS5003;66430;50.182;11.704;2023-05-19T06:53:50;19;18;
77365;PMS5003;66430;50.182;11.704;2023-05-19T06:56:16;10;10;
77365;PMS5003;66430;50.182;11.704;2023-05-19T06:58:42;14;11;
77365;PMS5003;66430;50.182;11.704;2023-05-19T07:01:07;12;10;
77365;PMS5003;66430;50.182;11.704;2023-05-19T07:03:33;11;10;
77365;PMS5003;66430;50.182;11.704;2023-05-19T07:05:58;12;12;
77365;PMS5003;66430;50.182;11.704;2023-05-19T07:08:23;13;10;
77365;PMS5003;66430;50.182;11.704;2023-05-19T07:10:49;8;7;
77365;PMS5003;66430;50.182;11.704;2023-05-19T07:13:14;9;9;
77365;PMS5003;66430;50.182;11.704;2023-05-19T07:15:39;8;8;
77365;PMS5003;66430;50.182;11.704;2023-05-19T07:18:05;8;8;
77365;PMS5003;66430;50.182;11.704;2023-05-19T07:20:30;8;8;
77365;PMS5003;66430;50.182;11.704;2023-05-19T07:22:55;9;8;
77365;PMS5003;66430;50.182;11.704;2023-05-19T07:25:21;14;13;
77365;PMS5003;66430;50.182;11.704;2023-05-19T07:27:47;8;8;
77365;PMS5003;66430;50.182;11.704;2023-05-19T07:30:12;10;8;
77365;PMS5003;66430;50.182;11.704;2023-05-19T07:32:37;9;9;
77365;PMS5003;66430;50.182;11.704;2023-05-19T07:35:04;5;5;
77365;PMS5003;66430;50.182;11.704;2023-05-19T07:37:28;10;9;
77365;PMS5003;66430;50.182;11.704;2023-05-19T07:39:54;11;10;
77365;PMS5003;66430;50.182;11.704;2023-05-19T07:42:19;7;7;
77365;PMS5003;66430;50.182;11.704;2023-05-19T07:44:44;9;8;
77365;PMS5003;66430;50.182;11.704;2023-05-19T07:47:10;7;7;
77365;PMS5003;66430;50.182;11.704;2023-05-19T07:49:35;8;8;
77365;PMS5003;66430;50.182;11.704;2023-05-19T07:52:00;12;9;
77365;PMS5003;66430;50.182;11.704;2023-05-19T07:54:26;7;7;
77365;PMS5003;66430;50.182;11.704;2023-05-19T07:56:51;8;7;
77365;PMS5003;66430;50.182;11.704;2023-05-19T07:59:17;7;7;
77365;PMS5003;66430;50.182;11.704;2023-05-19T08:01:42;9;7;
77365;PMS5003;66430;50.182;11.704;2023-05-19T08:04:08;7;7;
77365;PMS5003;66430;50.182;11.704;2023-05-19T08:06:33;9;7;
77365;PMS5003;66430;50.182;11.704;2023-05-19T08:08:58;7;7;
77365;PMS5003;66430;50.182;11.704;2023-05-19T08:11:24;5;5;
77365;PMS5003;66430;50.182;11.704;2023-05-19T08:13:49;7;7;
77365;PMS5003;66430;50.182;11.704;2023-05-19T08:16:15;5;4;
77365;PMS5003;66430;50.182;11.704;2023-05-19T08:18:40;8;8;
77365;PMS5003;66430;50.182;11.704;2023-05-19T08:21:06;5;5;
77365;PMS5003;66430;50.182;11.704;2023-05-19T08:23:31;5;4;
77365;PMS5003;66430;50.182;11.704;2023-05-19T08:25:57;5;5;
77365;PMS5003;66430;50.182;11.704;2023-05-19T08:28:22;7;7;
77365;PMS5003;66430;50.182;11.704;2023-05-19T08:30:48;9;8;
77365;PMS5003;66430;50.182;11.704;2023-05-19T08:33:13;7;7;
77365;PMS5003;66430;50.182;11.704;2023-05-19T08:35:38;10;7;
77365;PMS5003;66430;50.182;11.704;2023-05-19T08:38:03;7;6;
77365;PMS5003;66430;50.182;11.704;2023-05-19T08:40:29;5;5;
77365;PMS5003;66430;50.182;11.704;2023-05-19T08:42:54;10;7;
77365;PMS5003;66430;50.182;11.704;2023-05-19T08:45:19;5;4;
77365;PMS5003;66430;50.182;11.704;2023-05-19T08:47:45;7;6;
77365;PMS5003;66430;50.182;11.704;2023-05-19T08:50:10;7;7;
77365;PMS5003;66430;50.182;11.704;2023-05-19T08:52:39;4;4;
77365;PMS5003;66430;50.182;11.704;2023-05-19T08:55:03;5;5;
77365;PMS5003;66430;50.182;11.704;2023-05-19T08:57:27;7;6;
77365;PMS5003;66430;50.182;11.704;2023-05-19T08:59:52;5;5;
77365;PMS5003;66430;50.182;11.704;2023-05-19T09:02:18;6;6;
77365;PMS5003;66430;50.182;11.704;2023-05-19T09:04:43;7;7;
77365;PMS5003;66430;50.182;11.704;2023-05-19T09:07:08;7;7;
77365;PMS5003;66430;50.182;11.704;2023-05-19T09:09:34;7;6;
77365;PMS5003;66430;50.182;11.704;2023-05-19T09:11:59;7;7;
77365;PMS5003;66430;50.182;11.704;2023-05-19T09:14:25;7;7;
77365;PMS5003;66430;50.182;11.704;2023-05-19T09:16:52;7;5;
77365;PMS5003;66430;50.182;11.704;2023-05-19T09:19:16;9;7;
77365;PMS5003;66430;50.182;11.704;2023-05-19T09:21:41;7;7;
77365;PMS5003;66430;50.182;11.704;2023-05-19T09:24:06;7;7;
77365;PMS5003;66430;50.182;11.704;2023-05-19T09:26:36;6;6;
77365;PMS5003;66430;50.182;11.704;2023-05-19T09:28:57;8;7;
77365;PMS5003;66430;50.182;11.704;2023-05-19T09:31:22;8;7;
77365;PMS5003;66430;50.182;11.704;2023-05-19T09:33:49;7;7;
77365;PMS5003;66430;50.182;11.704;2023-05-19T09:36:13;7;5;
77365;PMS5003;66430;50.182;11.704;2023-05-19T09:38:39;8;8;
77365;PMS5003;66430;50.182;11.704;2023-05-19T09:41:04;9;8;
77365;PMS5003;66430;50.182;11.704;2023-05-19T09:43:30;7;7;
77365;PMS5003;66430;50.182;11.704;2023-05-19T09:45:57;11;9;
77365;PMS5003;66430;50.182;11.704;2023-05-19T09:48:20;7;6;
77365;PMS5003;66430;50.182;11.704;2023-05-19T09:50:45;7;7;
77365;PMS5003;66430;50.182;11.704;2023-05-19T09:53:11;8;8;
77365;PMS5003;66430;50.182;11.704;2023-05-19T09:55:36;10;9;
77365;PMS5003;66430;50.182;11.704;2023-05-19T09:58:02;7;7;
77365;PMS5003;66430;50.182;11.704;2023-05-19T10:00:27;7;7;
77365;PMS5003;66430;50.182;11.704;2023-05-19T10:02:53;6;6;
77365;PMS5003;66430;50.182;11.704;2023-05-19T10:05:18;10;9;
77365;PMS5003;66430;50.182;11.704;2023-05-19T10:07:44;7;7;
77365;PMS5003;66430;50.182;11.704;2023-05-19T10:10:10;9;9;
77365;PMS5003;66430;50.182;11.704;2023-05-19T10:12:34;7;7;
77365;PMS5003;66430;50.182;11.704;2023-05-19T10:15:00;5;5;
77365;PMS5003;66430;50.182;11.704;2023-05-19T10:17:25;6;6;
77365;PMS5003;66430;50.182;11.704;2023-05-19T10:19:50;9;9;
77365;PMS5003;66430;50.182;11.704;2023-05-19T10:22:16;9;9;
77365;PMS5003;66430;50.182;11.704;2023-05-19T10:24:41;9;8;
77365;PMS5003;66430;50.182;11.704;2023-05-19T10:27:07;10;10;
77365;PMS5003;66430;50.182;11.704;2023-05-19T10:29:33;7;7;
77365;PMS5003;66430;50.182;11.704;2023-05-19T10:31:59;11;7;
77365;PMS5003;66430;50.182;11.704;2023-05-19T10:34:28;10;10;
77365;PMS5003;66430;50.182;11.704;2023-05-19T10:36:49;9;9;
77365;PMS5003;66430;50.182;11.704;2023-05-19T10:39:15;10;8;
77365;PMS5003;66430;50.182;11.704;2023-05-19T10:41:40;11;10;
77365;PMS5003;66430;50.182;11.704;2023-05-19T10:44:06;10;10;
77365;PMS5003;66430;50.182;11.704;2023-05-19T10:46:30;10;10;
77365;PMS5003;66430;50.182;11.704;2023-05-19T10:48:55;15;12;
77365;PMS5003;66430;50.182;11.704;2023-05-19T10:51:20;10;10;
77365;PMS5003;66430;50.182;11.704;2023-05-19T10:53:46;10;10;
77365;PMS5003;66430;50.182;11.704;2023-05-19T10:56:11;12;11;
77365;PMS5003;66430;50.182;11.704;2023-05-19T10:58:37;11;10;
77365;PMS5003;66430;50.182;11.704;2023-05-19T11:01:05;11;11;
77365;PMS5003;66430;50.182;11.704;2023-05-19T11:03:28;12;12;
77365;PMS5003;66430;50.182;11.704;2023-05-19T11:05:53;10;10;
77365;PMS5003;66430;50.182;11.704;2023-05-19T11:08:22;13;11;
77365;PMS5003;66430;50.182;11.704;2023-05-19T11:10:43;13;12;
77365;PMS5003;66430;50.182;11.704;2023-05-19T11:13:17;9;9;
77365;PMS5003;66430;50.182;11.704;2023-05-19T11:15:34;13;13;
77365;PMS5003;66430;50.182;11.704;2023-05-19T11:18:00;11;11;
77365;PMS5003;66430;50.182;11.704;2023-05-19T11:20:26;14;11;
77365;PMS5003;66430;50.182;11.704;2023-05-19T11:25:17;11;8;
77365;PMS5003;66430;50.182;11.704;2023-05-19T11:27:41;12;11;
77365;PMS5003;66430;50.182;11.704;2023-05-19T11:30:08;13;11;
77365;PMS5003;66430;50.182;11.704;2023-05-19T11:32:32;10;10;
77365;PMS5003;66430;50.182;11.704;2023-05-19T11:34:57;12;10;
77365;PMS5003;66430;50.182;11.704;2023-05-19T11:37:22;13;10;
77365;PMS5003;66430;50.182;11.704;2023-05-19T11:39:48;12;11;
77365;PMS5003;66430;50.182;11.704;2023-05-19T11:42:13;10;10;
77365;PMS5003;66430;50.182;11.704;2023-05-19T11:44:39;10;10;
77365;PMS5003;66430;50.182;11.704;2023-05-19T11:47:04;11;9;
77365;PMS5003;66430;50.182;11.704;2023-05-19T11:49:29;14;14;
77365;PMS5003;66430;50.182;11.704;2023-05-19T11:51:54;10;10;
77365;PMS5003;66430;50.182;11.704;2023-05-19T11:54:20;10;8;
77365;PMS5003;66430;50.182;11.704;2023-05-19T11:56:45;10;9;
77365;PMS5003;66430;50.182;11.704;2023-05-19T11:59:11;12;10;
77365;PMS5003;66430;50.182;11.704;2023-05-19T12:01:36;11;11;
77365;PMS5003;66430;50.182;11.704;2023-05-19T12:04:02;10;10;
77365;PMS5003;66430;50.182;11.704;2023-05-19T12:06:27;10;10;
77365;PMS5003;66430;50.182;11.704;2023-05-19T12:08:53;11;10;
77365;PMS5003;66430;50.182;11.704;2023-05-19T12:11:18;12;11;
77365;PMS5003;66430;50.182;11.704;2023-05-19T12:13:43;12;10;
77365;PMS5003;66430;50.182;11.704;2023-05-19T12:16:09;15;11;
77365;PMS5003;66430;50.182;11.704;2023-05-19T12:18:35;11;11;
77365;PMS5003;66430;50.182;11.704;2023-05-19T12:20:59;18;16;
77365;PMS5003;66430;50.182;11.704;2023-05-19T12:23:24;11;11;
77365;PMS5003;66430;50.182;11.704;2023-05-19T12:25:50;12;12;
77365;PMS5003;66430;50.182;11.704;2023-05-19T12:28:15;11;11;
77365;PMS5003;66430;50.182;11.704;2023-05-19T12:30:42;9;9;
77365;PMS5003;66430;50.182;11.704;2023-05-19T12:33:06;8;8;
77365;PMS5003;66430;50.182;11.704;2023-05-19T12:35:31;11;11;
77365;PMS5003;66430;50.182;11.704;2023-05-19T12:37:56;11;10;
77365;PMS5003;66430;50.182;11.704;2023-05-19T12:40:22;11;11;
77365;PMS5003;66430;50.182;11.704;2023-05-19T12:42:48;9;8;
77365;PMS5003;66430;50.182;11.704;2023-05-19T12:45:12;9;9;
77365;PMS5003;66430;50.182;11.704;2023-05-19T12:47:38;12;12;
77365;PMS5003;66430;50.182;11.704;2023-05-19T12:50:04;10;10;
77365;PMS5003;66430;50.182;11.704;2023-05-19T12:52:29;10;10;
77365;PMS5003;66430;50.182;11.704;2023-05-19T12:54:57;12;12;
77365;PMS5003;66430;50.182;11.704;2023-05-19T12:57:19;12;10;
77365;PMS5003;66430;50.182;11.704;2023-05-19T12:59:44;11;11;
77365;PMS5003;66430;50.182;11.704;2023-05-19T13:02:10;11;11;
77365;PMS5003;66430;50.182;11.704;2023-05-19T13:04:35;13;13;
77365;PMS5003;66430;50.182;11.704;2023-05-19T13:07:01;11;8;
77365;PMS5003;66430;50.182;11.704;2023-05-19T13:09:26;11;10;
77365;PMS5003;66430;50.182;11.704;2023-05-19T13:11:51;11;11;
77365;PMS5003;66430;50.182;11.704;2023-05-19T13:14:17;15;11;
77365;PMS5003;66430;50.182;11.704;2023-05-19T13:16:43;9;9;
77365;PMS5003;66430;50.182;11.704;2023-05-19T13:19:08;10;9;
77365;PMS5003;66430;50.182;11.704;2023-05-19T13:21:33;12;12;
77365;PMS5003;66430;50.182;11.704;2023-05-19T13:23:58;16;16;
77365;PMS5003;66430;50.182;11.704;2023-05-19T13:26:23;11;11;
77365;PMS5003;66430;50.182;11.704;2023-05-19T13:28:50;11;11;
77365;PMS5003;66430;50.182;11.704;2023-05-19T13:31:14;8;8;
77365;PMS5003;66430;50.182;11.704;2023-05-19T13:33:40;12;11;
77365;PMS5003;66430;50.182;11.704;2023-05-19T13:36:06;12;10;
77365;PMS5003;66430;50.182;11.704;2023-05-19T13:38:30;13;13;
77365;PMS5003;66430;50.182;11.704;2023-05-19T13:40:56;9;9;
77365;PMS5003;66430;50.182;11.704;2023-05-19T13:43:22;12;11;
77365;PMS5003;66430;50.182;11.704;2023-05-19T13:45:47;11;10;
77365;PMS5003;66430;50.182;11.704;2023-05-19T13:48:12;8;8;
77365;PMS5003;66430;50.182;11.704;2023-05-19T13:50:37;8;8;
77365;PMS5003;66430;50.182;11.704;2023-05-19T13:53:03;8;8;
77365;PMS5003;66430;50.182;11.704;2023-05-19T13:55:29;12;11;
77365;PMS5003;66430;50.182;11.704;2023-05-19T13:57:54;9;9;
77365;PMS5003;66430;50.182;11.704;2023-05-19T14:00:19;9;9;
77365;PMS5003;66430;50.182;11.704;2023-05-19T14:02:44;11;11;
77365;PMS5003;66430;50.182;11.704;2023-05-19T14:05:10;10;10;
77365;PMS5003;66430;50.182;11.704;2023-05-19T14:07:36;10;10;
77365;PMS5003;66430;50.182;11.704;2023-05-19T14:10:01;13;13;
77365;PMS5003;66430;50.182;11.704;2023-05-19T14:12:27;10;10;
77365;PMS5003;66430;50.182;11.704;2023-05-19T14:14:51;13;13;
77365;PMS5003;66430;50.182;11.704;2023-05-19T14:17:16;13;13;
77365;PMS5003;66430;50.182;11.704;2023-05-19T14:19:42;14;12;
77365;PMS5003;66430;50.182;11.704;2023-05-19T14:22:08;12;12;
77365;PMS5003;66430;50.182;11.704;2023-05-19T14:24:33;12;11;
77365;PMS5003;66430;50.182;11.704;2023-05-19T14:26:57;13;10;
77365;PMS5003;66430;50.182;11.704;2023-05-19T14:29:23;14;12;
77365;PMS5003;66430;50.182;11.704;2023-05-19T14:31:48;12;12;
77365;PMS5003;66430;50.182;11.704;2023-05-19T14:34:13;12;11;
77365;PMS5003;66430;50.182;11.704;2023-05-19T14:36:39;12;12;
77365;PMS5003;66430;50.182;11.704;2023-05-19T14:39:04;10;10;
77365;PMS5003;66430;50.182;11.704;2023-05-19T14:41:30;9;9;
77365;PMS5003;66430;50.182;11.704;2023-05-19T14:43:55;9;9;
77365;PMS5003;66430;50.182;11.704;2023-05-19T14:46:20;11;10;
77365;PMS5003;66430;50.182;11.704;2023-05-19T14:48:46;13;12;
77365;PMS5003;66430;50.182;11.704;2023-05-19T14:51:11;11;11;
77365;PMS5003;66430;50.182;11.704;2023-05-19T14:53:37;11;11;
77365;PMS5003;66430;50.182;11.704;2023-05-19T14:56:02;13;9;
77365;PMS5003;66430;50.182;11.704;2023-05-19T14:58:27;13;13;
77365;PMS5003;66430;50.182;11.704;2023-05-19T15:00:53;12;10;
77365;PMS5003;66430;50.182;11.704;2023-05-19T15:03:18;11;11;
77365;PMS5003;66430;50.182;11.704;2023-05-19T15:05:43;8;8;
77365;PMS5003;66430;50.182;11.704;2023-05-19T15:08:09;9;9;
77365;PMS5003;66430;50.182;11.704;2023-05-19T15:10:34;11;10;
77365;PMS5003;66430;50.182;11.704;2023-05-19T15:13:00;10;9;
77365;PMS5003;66430;50.182;11.704;2023-05-19T15:15:25;9;9;
77365;PMS5003;66430;50.182;11.704;2023-05-19T15:17:51;10;9;
77365;PMS5003;66430;50.182;11.704;2023-05-19T15:20:16;10;10;
77365;PMS5003;66430;50.182;11.704;2023-05-19T15:22:41;11;11;
77365;PMS5003;66430;50.182;11.704;2023-05-19T15:25:07;11;10;
77365;PMS5003;66430;50.182;11.704;2023-05-19T15:27:33;11;11;
77365;PMS5003;66430;50.182;11.704;2023-05-19T15:29:59;13;11;
77365;PMS5003;66430;50.182;11.704;2023-05-19T15:32:23;13;12;
77365;PMS5003;66430;50.182;11.704;2023-05-19T15:34:48;10;10;
77365;PMS5003;66430;50.182;11.704;2023-05-19T15:37:14;11;11;
77365;PMS5003;66430;50.182;11.704;2023-05-19T15:39:39;12;11;
77365;PMS5003;66430;50.182;11.704;2023-05-19T15:42:04;12;11;
77365;PMS5003;66430;50.182;11.704;2023-05-19T15:44:30;10;10;
77365;PMS5003;66430;50.182;11.704;2023-05-19T15:46:55;12;11;
77365;PMS5003;66430;50.182;11.704;2023-05-19T15:49:22;11;11;
77365;PMS5003;66430;50.182;11.704;2023-05-19T15:51:46;11;11;
77365;PMS5003;66430;50.182;11.704;2023-05-19T15:54:11;8;8;
77365;PMS5003;66430;50.182;11.704;2023-05-19T15:56:37;10;10;
77365;PMS5003;66430;50.182;11.704;2023-05-19T15:59:02;11;11;
77365;PMS5003;66430;50.182;11.704;2023-05-19T16:01:28;12;10;
77365;PMS5003;66430;50.182;11.704;2023-05-19T16:03:53;10;10;
77365;PMS5003;66430;50.182;11.704;2023-05-19T16:06:18;12;10;